Time;durP1;ratioP1;P1;durP2;ratioP2;P2;SDS_P1;SDS_P2;PMS_P1;PMS_P2;Temp;Humidity;BMP_temperature;BMP_pressure;BME280_temperature;BME280_humidity;BME280_pressure;Samples;Min_cycle;Max_cycle;Signal;HPM_P1;HPM_P2
2022/04/07 00:00:35;;;;;;;7.20;6.60;;;9.20;99.90;;;;;;4902402;29;20252;-67
2022/04/07 00:03:03;;;;;;;7.17;6.43;;;9.20;99.90;;;;;;4898570;29;20324;-67
2022/04/07 00:05:31;;;;;;;7.30;6.60;;;9.20;99.90;;;;;;4897273;29;20293;-67
2022/04/07 00:08:01;;;;;;;7.17;6.47;;;9.20;99.90;;;;;;4893372;29;20320;-67
2022/04/07 00:10:29;;;;;;;7.30;6.60;;;9.30;99.90;;;;;;4897670;29;20273;-67
2022/04/07 00:12:57;;;;;;;7.20;6.20;;;9.30;99.90;;;;;;4897957;29;20244;-67
2022/04/07 00:15:25;;;;;;;6.87;6.20;;;9.20;99.90;;;;;;4897572;29;20268;-67
2022/04/07 00:17:54;;;;;;;7.17;6.50;;;9.30;99.90;;;;;;4897810;29;20248;-67
2022/04/07 00:20:22;;;;;;;8.87;6.47;;;9.30;99.90;;;;;;4894312;29;20265;-67
2022/04/07 00:22:50;;;;;;;7.03;6.33;;;9.30;99.90;;;;;;4897561;29;20246;-67
2022/04/07 00:25:20;;;;;;;6.87;6.17;;;9.30;99.90;;;;;;4897833;29;20269;-67
2022/04/07 00:27:48;;;;;;;7.27;6.67;;;9.30;99.90;;;;;;4897436;29;20232;-67
2022/04/07 00:30:20;;;;;;;6.57;5.87;;;9.30;99.90;;;;;;4897562;29;20241;-67
2022/04/07 00:32:49;;;;;;;7.17;6.27;;;9.30;99.90;;;;;;4897477;29;20245;-67
2022/04/07 00:35:18;;;;;;;6.70;6.10;;;9.30;99.90;;;;;;4897443;29;20241;-67
2022/04/07 00:37:46;;;;;;;7.10;6.23;;;9.30;99.90;;;;;;4897460;29;20784;-67
2022/04/07 00:40:14;;;;;;;7.17;6.47;;;9.30;99.90;;;;;;4905343;29;20740;-67
2022/04/07 00:42:47;;;;;;;9.97;7.23;;;9.30;99.90;;;;;;4890331;29;20269;-67
2022/04/07 00:45:15;;;;;;;7.50;6.87;;;9.30;99.90;;;;;;4897002;29;20677;-67
2022/04/07 00:47:44;;;;;;;7.67;6.93;;;9.30;99.90;;;;;;4897153;29;20252;-67
2022/04/07 00:50:14;;;;;;;8.40;7.60;;;9.30;99.90;;;;;;4897270;29;20328;-67
2022/04/07 00:52:45;;;;;;;10.07;7.50;;;9.30;99.90;;;;;;4896952;29;20252;-67
2022/04/07 00:55:14;;;;;;;8.07;7.20;;;9.40;99.90;;;;;;4896793;29;20237;-67
2022/04/07 00:57:43;;;;;;;8.40;7.70;;;9.30;99.90;;;;;;4896492;29;20255;-67
2022/04/07 01:00:14;;;;;;;8.20;7.40;;;9.30;99.90;;;;;;4897146;29;20245;-67
2022/04/07 01:02:43;;;;;;;9.57;7.00;;;9.30;99.90;;;;;;4896394;29;20304;-67
2022/04/07 01:05:12;;;;;;;7.50;6.77;;;9.30;99.90;;;;;;4896125;29;20281;-67
2022/04/07 01:07:40;;;;;;;7.83;7.07;;;9.30;99.90;;;;;;4896597;29;20583;-66
2022/04/07 01:10:10;;;;;;;7.90;7.20;;;9.30;99.90;;;;;;4896857;29;20233;-67
2022/04/07 01:12:38;;;;;;;9.57;7.57;;;9.30;99.90;;;;;;4896606;29;20249;-67
2022/04/07 01:15:08;;;;;;;8.33;6.87;;;9.30;99.90;;;;;;4896869;29;20237;-67
2022/04/07 01:17:38;;;;;;;8.40;7.27;;;9.30;99.90;;;;;;4896510;29;20276;-67
2022/04/07 01:20:08;;;;;;;7.40;6.73;;;9.30;99.90;;;;;;4896316;29;20265;-67
2022/04/07 01:22:37;;;;;;;7.50;6.87;;;9.20;99.90;;;;;;4896536;29;20332;-67
2022/04/07 01:25:08;;;;;;;7.83;7.00;;;9.30;99.90;;;;;;4903989;29;20245;-67
2022/04/07 01:27:37;;;;;;;8.23;7.03;;;9.30;99.90;;;;;;4896635;29;20765;-67
2022/04/07 01:30:08;;;;;;;7.97;6.97;;;9.30;99.90;;;;;;4896403;29;20705;-67
2022/04/07 01:32:40;;;;;;;7.50;6.77;;;9.30;99.90;;;;;;4896310;29;20658;-67
2022/04/07 01:35:09;;;;;;;7.67;6.40;;;9.30;99.90;;;;;;4896352;29;20244;-67
2022/04/07 01:37:39;;;;;;;8.47;6.60;;;9.40;99.90;;;;;;4896238;29;20605;-67
2022/04/07 01:40:10;;;;;;;6.77;5.57;;;9.40;99.90;;;;;;4903155;29;20236;-67
2022/04/07 01:42:39;;;;;;;6.47;5.87;;;9.40;99.90;;;;;;4895920;29;20370;-67
2022/04/07 01:45:08;;;;;;;6.40;5.80;;;9.40;99.90;;;;;;4896179;29;20316;-67
2022/04/07 01:47:38;;;;;;;6.80;5.63;;;9.40;99.90;;;;;;4896311;29;20327;-67
2022/04/07 01:50:08;;;;;;;6.13;5.63;;;9.40;99.90;;;;;;4896036;29;20579;-67
2022/04/07 01:52:37;;;;;;;6.20;5.60;;;9.30;99.90;;;;;;4893055;29;20241;-67
2022/04/07 01:55:08;;;;;;;7.10;5.27;;;9.30;99.90;;;;;;4893954;29;20711;-67
2022/04/07 01:57:36;;;;;;;6.20;5.60;;;9.20;99.90;;;;;;4895890;29;20331;-67
2022/04/07 02:00:11;;;;;;;6.80;5.80;;;9.30;99.90;;;;;;4895998;29;20601;-67
2022/04/07 02:02:40;;;;;;;6.70;5.90;;;9.20;99.90;;;;;;4895898;29;20253;-67
2022/04/07 02:05:11;;;;;;;7.00;5.53;;;9.20;99.90;;;;;;4896315;29;20245;-67
2022/04/07 02:07:41;;;;;;;6.27;5.47;;;9.20;99.90;;;;;;4893905;29;20721;-67
2022/04/07 02:10:12;;;;;;;6.20;5.60;;;9.20;99.90;;;;;;4902940;29;20308;-67
2022/04/07 02:12:42;;;;;;;6.10;5.37;;;9.20;99.90;;;;;;4894685;29;20269;-67
2022/04/07 02:15:12;;;;;;;6.20;5.43;;;9.20;99.90;;;;;;4896082;29;20379;-67
2022/04/07 02:17:41;;;;;;;7.10;5.73;;;9.30;99.90;;;;;;4895829;29;20252;-67
2022/04/07 02:20:10;;;;;;;5.87;5.33;;;9.30;99.90;;;;;;4909003;29;20248;-67
2022/04/07 02:22:39;;;;;;;6.40;5.77;;;9.30;99.90;;;;;;4895672;29;20252;-67
2022/04/07 02:25:09;;;;;;;6.03;5.37;;;9.30;99.90;;;;;;4896211;29;20237;-67
2022/04/07 02:27:41;;;;;;;6.10;5.50;;;9.30;99.90;;;;;;4895694;29;20288;-67
2022/04/07 02:30:11;;;;;;;6.67;6.03;;;9.30;99.90;;;;;;4907408;29;20245;-67
2022/04/07 02:32:39;;;;;;;7.23;5.50;;;9.30;99.90;;;;;;4895264;29;20248;-67
2022/04/07 02:35:08;;;;;;;6.67;5.80;;;9.30;99.90;;;;;;4895986;29;20247;-67
2022/04/07 02:37:36;;;;;;;6.50;5.90;;;9.20;99.90;;;;;;4895771;29;20301;-67
2022/04/07 02:40:05;;;;;;;8.10;5.70;;;9.20;99.90;;;;;;4902543;29;20243;-66
2022/04/07 02:42:34;;;;;;;6.83;6.13;;;9.20;99.90;;;;;;4896301;29;20662;-66
2022/04/07 02:45:04;;;;;;;7.27;6.50;;;9.10;99.90;;;;;;4895651;29;20723;-66
2022/04/07 02:47:33;;;;;;;8.83;6.20;;;9.10;99.90;;;;;;4895434;29;20240;-66
2022/04/07 02:50:01;;;;;;;7.07;6.30;;;9.10;99.90;;;;;;4895373;29;20310;-66
2022/04/07 02:52:29;;;;;;;6.93;6.23;;;9.10;99.90;;;;;;4895246;29;20233;-67
2022/04/07 02:54:57;;;;;;;8.23;6.70;;;9.00;99.90;;;;;;4895296;29;20307;-67
2022/04/07 02:57:30;;;;;;;7.53;6.67;;;9.00;99.90;;;;;;4894710;29;20262;-66
2022/04/07 02:59:59;;;;;;;7.60;6.80;;;9.00;99.90;;;;;;4895141;29;20289;-67
2022/04/07 03:02:28;;;;;;;8.20;7.37;;;9.00;99.90;;;;;;4891004;29;20293;-67
2022/04/07 03:04:57;;;;;;;8.07;7.27;;;8.90;99.90;;;;;;4895247;29;20768;-67
2022/04/07 03:07:25;;;;;;;11.43;7.67;;;8.90;99.90;;;;;;4895237;29;20597;-67
2022/04/07 03:09:53;;;;;;;8.33;7.53;;;8.90;99.90;;;;;;4895093;29;20652;-68
2022/04/07 03:12:21;;;;;;;9.90;7.70;;;8.90;99.90;;;;;;4894862;29;20237;-67
2022/04/07 03:14:50;;;;;;;8.83;7.97;;;8.90;99.90;;;;;;4895649;29;20599;-67
2022/04/07 03:17:18;;;;;;;8.73;7.87;;;8.90;99.90;;;;;;4895174;29;20336;-67
2022/04/07 03:19:47;;;;;;;7.70;6.97;;;8.90;99.90;;;;;;4895772;29;20577;-67
2022/04/07 03:22:18;;;;;;;7.83;7.13;;;8.90;99.90;;;;;;4898895;29;20297;-67
2022/04/07 03:24:46;;;;;;;8.00;6.97;;;8.90;99.90;;;;;;4900143;29;20741;-67
2022/04/07 03:27:14;;;;;;;7.37;6.63;;;8.90;99.90;;;;;;4904214;29;20233;-67
2022/04/07 03:29:42;;;;;;;7.97;6.50;;;8.90;99.90;;;;;;4903347;29;20237;-67
2022/04/07 03:32:11;;;;;;;6.80;6.10;;;9.00;99.90;;;;;;4898443;29;20292;-67
2022/04/07 03:34:39;;;;;;;7.63;6.93;;;8.90;99.90;;;;;;4898326;29;20245;-67
2022/04/07 03:37:08;;;;;;;8.00;7.07;;;9.00;99.90;;;;;;4899073;29;20671;-67
2022/04/07 03:39:36;;;;;;;8.83;6.80;;;8.90;99.90;;;;;;4898622;29;20265;-67
2022/04/07 03:42:05;;;;;;;9.30;6.73;;;8.90;99.90;;;;;;4898672;29;20241;-67
2022/04/07 03:44:33;;;;;;;9.40;6.87;;;8.90;99.90;;;;;;4900238;29;20783;-66
2022/04/07 03:47:01;;;;;;;8.67;7.13;;;8.90;99.90;;;;;;4898546;29;20236;-67
2022/04/07 03:49:30;;;;;;;7.47;6.77;;;9.00;99.90;;;;;;4898376;29;20241;-67
2022/04/07 03:51:58;;;;;;;7.57;6.87;;;8.90;99.90;;;;;;4898600;29;20586;-67
2022/04/07 03:54:28;;;;;;;7.40;6.70;;;8.90;99.90;;;;;;4898267;29;20279;-67
2022/04/07 03:56:56;;;;;;;7.33;6.63;;;9.00;99.90;;;;;;4903952;29;20248;-67
2022/04/07 03:59:25;;;;;;;6.60;5.90;;;9.00;99.90;;;;;;4904343;29;20260;-67
2022/04/07 04:01:54;;;;;;;8.50;6.27;;;9.00;99.90;;;;;;4904238;29;20245;-67
2022/04/07 04:04:23;;;;;;;6.90;6.30;;;8.90;99.90;;;;;;4898784;29;20259;-67
2022/04/07 04:06:51;;;;;;;6.33;5.73;;;9.00;99.90;;;;;;4897916;29;20246;-67
2022/04/07 04:09:19;;;;;;;6.50;5.90;;;9.00;99.90;;;;;;4898979;29;20273;-67
2022/04/07 04:11:49;;;;;;;6.00;5.40;;;9.10;99.90;;;;;;4904440;29;20253;-67
2022/04/07 04:14:17;;;;;;;5.23;4.73;;;9.10;99.90;;;;;;4898566;29;20245;-67
2022/04/07 04:16:45;;;;;;;7.47;5.67;;;9.10;99.90;;;;;;4899127;29;20245;-67
2022/04/07 04:19:13;;;;;;;6.33;5.33;;;9.00;99.90;;;;;;4904060;29;20236;-67
2022/04/07 04:21:42;;;;;;;8.33;5.10;;;9.00;99.90;;;;;;4905076;29;20260;-67
2022/04/07 04:24:11;;;;;;;5.90;5.27;;;9.00;99.90;;;;;;4897564;29;20914;-67
2022/04/07 04:26:39;;;;;;;5.80;4.43;;;9.00;99.90;;;;;;4895538;29;20245;-67
2022/04/07 04:29:09;;;;;;;4.90;4.50;;;9.00;99.90;;;;;;4902481;29;20256;-67
2022/04/07 04:31:37;;;;;;;5.80;5.03;;;9.00;99.90;;;;;;4896636;29;20292;-67
2022/04/07 04:34:05;;;;;;;6.40;5.30;;;9.00;99.90;;;;;;4897836;29;20701;-67
2022/04/07 04:36:34;;;;;;;5.20;4.70;;;9.00;99.90;;;;;;4897431;29;20233;-67
2022/04/07 04:39:02;;;;;;;4.67;4.27;;;9.00;99.90;;;;;;4897815;29;20248;-67
2022/04/07 04:41:31;;;;;;;4.37;3.97;;;9.00;99.90;;;;;;4904691;29;20241;-67
2022/04/07 04:44:00;;;;;;;4.50;3.87;;;9.00;99.90;;;;;;4898150;29;20238;-67
2022/04/07 04:46:29;;;;;;;4.50;4.10;;;9.00;99.90;;;;;;4896502;29;20784;-67
2022/04/07 04:48:58;;;;;;;9.97;4.60;;;9.00;99.90;;;;;;4897640;29;20705;-67
2022/04/07 04:51:26;;;;;;;6.00;4.57;;;9.00;99.90;;;;;;4896860;29;20713;-67
2022/04/07 04:53:54;;;;;;;6.27;4.80;;;8.90;99.90;;;;;;4896954;29;20241;-67
2022/04/07 04:56:23;;;;;;;6.33;5.17;;;8.90;99.90;;;;;;4896576;29;20233;-67
2022/04/07 04:58:51;;;;;;;6.87;5.27;;;8.90;99.90;;;;;;4903611;29;20241;-67
2022/04/07 05:01:19;;;;;;;6.30;4.87;;;8.90;99.90;;;;;;4906867;29;20609;-67
2022/04/07 05:03:49;;;;;;;5.60;5.00;;;8.90;99.90;;;;;;4897034;29;20237;-67
2022/04/07 05:06:17;;;;;;;8.13;5.03;;;8.90;99.90;;;;;;4895728;29;20241;-67
2022/04/07 05:08:45;;;;;;;5.23;4.73;;;8.90;99.90;;;;;;4897208;29;20260;-67
2022/04/07 05:11:13;;;;;;;6.40;4.87;;;8.90;99.90;;;;;;4896332;29;20232;-67
2022/04/07 05:13:41;;;;;;;5.57;4.97;;;9.00;99.90;;;;;;4893684;29;20237;-68
2022/04/07 05:16:15;;;;;;;5.83;3.90;;;9.00;99.90;;;;;;4895527;29;20246;-67
2022/04/07 05:18:46;;;;;;;5.93;3.73;;;9.00;99.90;;;;;;4896873;29;20260;-67
2022/04/07 05:21:16;;;;;;;4.97;3.13;;;9.00;99.90;;;;;;4896730;29;20241;-67
2022/04/07 05:23:44;;;;;;;4.40;3.00;;;9.00;99.90;;;;;;4896793;29;20249;-67
2022/04/07 05:26:13;;;;;;;5.53;3.50;;;9.00;99.90;;;;;;4896908;29;20316;-67
2022/04/07 05:28:42;;;;;;;5.03;2.97;;;8.90;99.90;;;;;;4892971;29;20332;-67
2022/04/07 05:31:10;;;;;;;3.90;2.77;;;8.90;99.90;;;;;;4899952;29;20241;-67
2022/04/07 05:33:39;;;;;;;4.30;3.17;;;8.90;99.90;;;;;;4896097;29;20717;-67
2022/04/07 05:36:07;;;;;;;6.17;3.30;;;8.90;99.90;;;;;;4896740;29;20254;-67
2022/04/07 05:38:36;;;;;;;5.50;3.40;;;8.90;99.90;;;;;;4896312;29;20241;-67
2022/04/07 05:41:04;;;;;;;6.83;3.50;;;8.80;99.90;;;;;;4891832;29;20264;-67
2022/04/07 05:43:32;;;;;;;3.97;3.03;;;8.80;99.90;;;;;;4893336;29;20245;-64
2022/04/07 05:46:02;;;;;;;5.07;3.50;;;8.80;99.90;;;;;;4896035;29;20710;-64
2022/04/07 05:48:30;;;;;;;6.20;3.47;;;8.80;99.90;;;;;;4895963;29;20244;-64
2022/04/07 05:50:59;;;;;;;3.77;3.40;;;8.80;99.90;;;;;;4896072;29;20241;-64
2022/04/07 05:53:28;;;;;;;3.73;3.40;;;8.80;99.90;;;;;;4895952;29;20251;-64
2022/04/07 05:55:59;;;;;;;6.50;4.10;;;8.80;99.90;;;;;;4895718;29;20280;-64
2022/04/07 05:58:28;;;;;;;3.60;2.77;;;8.80;99.90;;;;;;4896137;29;20277;-64
2022/04/07 06:00:56;;;;;;;4.73;3.60;;;8.80;99.90;;;;;;4893561;29;20237;-64
2022/04/07 06:03:24;;;;;;;5.63;3.10;;;8.80;99.90;;;;;;4895689;29;20605;-65
2022/04/07 06:05:53;;;;;;;5.77;3.37;;;8.80;99.90;;;;;;4904021;29;20330;-64
2022/04/07 06:08:22;;;;;;;5.53;3.00;;;8.90;99.90;;;;;;4890757;29;20237;-64
2022/04/07 06:10:50;;;;;;;4.57;3.20;;;8.90;99.90;;;;;;4887154;29;20260;-64
2022/04/07 06:13:19;;;;;;;6.27;3.20;;;8.90;99.90;;;;;;4895755;29;20245;-66
2022/04/07 06:15:48;;;;;;;6.33;3.37;;;8.90;99.90;;;;;;4895575;29;20248;-67
2022/04/07 06:18:16;;;;;;;5.40;3.10;;;9.00;99.90;;;;;;4895883;29;20244;-67
2022/04/07 06:20:46;;;;;;;4.07;2.83;;;9.00;99.90;;;;;;4901570;29;20620;-67
2022/04/07 06:23:14;;;;;;;7.60;2.57;;;9.10;99.90;;;;;;4895829;29;20233;-67
2022/04/07 06:25:43;;;;;;;4.53;2.83;;;9.10;99.90;;;;;;4903069;29;20237;-67
2022/04/07 06:28:12;;;;;;;6.77;3.20;;;9.10;99.90;;;;;;4895554;29;20252;-67
2022/04/07 06:30:41;;;;;;;5.53;3.20;;;9.20;99.90;;;;;;4900407;29;20329;-67
2022/04/07 06:33:09;;;;;;;7.33;2.97;;;9.30;99.90;;;;;;4895939;29;20280;-67
2022/04/07 06:35:38;;;;;;;7.87;2.97;;;9.30;99.90;;;;;;4894142;29;20712;-66
2022/04/07 06:38:06;;;;;;;8.27;3.60;;;9.30;99.90;;;;;;4891325;29;20244;-67
2022/04/07 06:40:34;;;;;;;3.77;2.80;;;9.40;99.90;;;;;;4889646;29;20563;-67
2022/04/07 06:43:02;;;;;;;8.67;3.20;;;9.40;99.90;;;;;;4888725;29;20651;-67
2022/04/07 06:45:30;;;;;;;5.77;2.77;;;9.40;99.90;;;;;;4888615;29;20323;-67
2022/04/07 06:48:00;;;;;;;4.80;2.93;;;9.40;99.90;;;;;;4890951;29;20236;-66
2022/04/07 06:50:28;;;;;;;7.27;3.07;;;9.40;99.90;;;;;;4893055;29;20247;-67
2022/04/07 06:52:57;;;;;;;5.93;3.57;;;9.30;99.90;;;;;;4895446;29;20669;-66
2022/04/07 06:55:26;;;;;;;5.40;3.13;;;9.30;99.90;;;;;;4894019;29;20244;-67
2022/04/07 06:57:56;;;;;;;5.93;3.50;;;9.30;99.90;;;;;;4899459;29;20269;-67
2022/04/07 07:00:26;;;;;;;6.60;3.43;;;9.30;99.90;;;;;;4903854;29;20236;-67
2022/04/07 07:02:55;;;;;;;9.57;4.00;;;9.30;99.90;;;;;;4899472;29;20233;-67
2022/04/07 07:05:26;;;;;;;8.63;3.83;;;9.40;99.90;;;;;;4899497;29;20241;-67
2022/04/07 07:07:54;;;;;;;9.03;4.20;;;9.40;99.90;;;;;;4898990;29;20668;-67
2022/04/07 07:10:24;;;;;;;8.13;4.40;;;9.40;99.90;;;;;;4906529;29;20240;-67
2022/04/07 07:12:53;;;;;;;8.97;4.77;;;9.40;99.90;;;;;;4888713;29;20269;-66
2022/04/07 07:15:22;;;;;;;8.87;5.47;;;9.40;99.90;;;;;;4899052;29;20236;-66
2022/04/07 07:17:51;;;;;;;9.33;4.90;;;9.30;99.90;;;;;;4895886;29;20268;-66
2022/04/07 07:20:20;;;;;;;9.53;5.53;;;9.20;99.90;;;;;;4894842;29;20677;-66
2022/04/07 07:22:49;;;;;;;8.40;5.37;;;9.20;99.90;;;;;;4898850;29;20238;-66
2022/04/07 07:25:17;;;;;;;9.30;5.97;;;9.20;99.90;;;;;;4906480;29;20241;-66
2022/04/07 07:27:48;;;;;;;9.43;5.67;;;9.20;99.90;;;;;;4892695;29;20245;-66
2022/04/07 07:30:18;;;;;;;9.10;5.30;;;9.10;99.90;;;;;;4897742;29;20312;-66
2022/04/07 07:32:47;;;;;;;10.37;6.40;;;9.10;99.90;;;;;;4889621;29;20297;-66
2022/04/07 07:35:18;;;;;;;6.87;6.07;;;9.00;99.90;;;;;;4888250;29;20320;-66
2022/04/07 07:37:52;;;;;;;9.73;7.03;;;9.00;99.90;;;;;;4898474;29;20248;-66
2022/04/07 07:40:24;;;;;;;8.10;6.10;;;9.00;99.90;;;;;;4898469;29;20284;-66
2022/04/07 07:42:55;;;;;;;9.40;6.70;;;8.90;99.90;;;;;;4892837;29;20760;-66
2022/04/07 07:45:24;;;;;;;9.13;6.07;;;8.90;99.90;;;;;;4891247;29;20740;-66
2022/04/07 07:48:13;;;;;;;7.83;6.30;;;8.90;99.90;;;;;;4898107;29;20251;-66
2022/04/07 07:50:42;;;;;;;8.70;6.40;;;8.90;99.90;;;;;;4896120;29;20248;-66
2022/04/07 07:53:18;;;;;;;9.70;6.10;;;9.00;99.90;;;;;;4898425;29;20297;-66
2022/04/07 07:55:46;;;;;;;9.13;6.60;;;9.00;99.90;;;;;;4892808;29;20298;-66
2022/04/07 07:58:15;;;;;;;7.07;5.97;;;8.90;99.90;;;;;;4886974;29;20238;-66
2022/04/07 08:00:43;;;;;;;9.23;6.07;;;9.00;99.90;;;;;;4900398;29;20257;-66
2022/04/07 08:03:11;;;;;;;8.93;6.30;;;8.90;99.90;;;;;;4898196;29;20237;-66
2022/04/07 08:05:40;;;;;;;7.40;6.17;;;8.90;99.90;;;;;;4898472;29;20604;-66
2022/04/07 08:08:11;;;;;;;11.37;6.47;;;9.00;99.90;;;;;;4896390;29;20241;-66
2022/04/07 08:10:40;;;;;;;9.17;5.60;;;9.00;99.90;;;;;;4900518;29;20269;-66
2022/04/07 08:13:09;;;;;;;6.43;5.20;;;8.90;99.90;;;;;;4898191;29;20245;-66
2022/04/07 08:15:38;;;;;;;8.83;5.37;;;8.90;99.90;;;;;;4898121;29;20245;-66
2022/04/07 08:18:07;;;;;;;8.23;5.37;;;9.00;99.90;;;;;;4898101;29;20324;-66
2022/04/07 08:20:35;;;;;;;9.20;5.20;;;9.00;99.90;;;;;;4893356;29;20700;-66
2022/04/07 08:23:03;;;;;;;5.93;4.53;;;9.00;99.90;;;;;;4891233;29;20244;-66
2022/04/07 08:25:32;;;;;;;5.87;4.70;;;9.00;99.90;;;;;;4898204;29;20247;-66
2022/04/07 08:28:02;;;;;;;7.33;4.87;;;9.00;99.90;;;;;;4887676;29;20294;-66
2022/04/07 08:30:34;;;;;;;4.57;2.23;;;9.00;99.90;;;;;;4888766;29;20240;-66
2022/04/07 08:33:03;;;;;;;2.37;1.30;;;8.80;99.90;;;;;;4889820;29;20630;-66
2022/04/07 08:35:32;;;;;;;2.07;0.63;;;8.50;99.90;;;;;;4891973;29;20254;-66
2022/04/07 08:38:00;;;;;;;0.63;0.40;;;8.30;99.90;;;;;;4891838;29;20245;-66
2022/04/07 08:40:29;;;;;;;0.53;0.43;;;8.10;99.90;;;;;;4891392;29;20360;-66
2022/04/07 08:42:57;;;;;;;0.43;0.30;;;8.00;99.90;;;;;;4889539;29;20234;-66
2022/04/07 08:45:29;;;;;;;0.77;0.50;;;7.90;99.90;;;;;;4905029;29;20712;-66
2022/04/07 08:47:58;;;;;;;0.77;0.63;;;7.90;99.90;;;;;;4893511;29;20238;-66
2022/04/07 08:50:28;;;;;;;0.60;0.33;;;7.80;99.90;;;;;;4890036;29;20238;-66
2022/04/07 08:52:57;;;;;;;1.93;0.50;;;7.80;99.90;;;;;;4896659;29;20245;-66
2022/04/07 08:55:25;;;;;;;1.37;0.67;;;7.70;99.90;;;;;;4891033;29;20238;-66
2022/04/07 08:57:53;;;;;;;0.70;0.40;;;7.70;99.90;;;;;;4892863;29;20755;-66
2022/04/07 09:00:22;;;;;;;0.80;0.40;;;7.70;99.90;;;;;;4896970;29;20305;-66
2022/04/07 09:02:53;;;;;;;1.43;0.50;;;7.70;99.90;;;;;;4897070;29;20240;-66
2022/04/07 09:05:24;;;;;;;0.70;0.40;;;7.60;99.90;;;;;;4897419;29;20237;-66
2022/04/07 09:07:54;;;;;;;0.70;0.67;;;7.60;99.90;;;;;;4890866;29;20774;-66
2022/04/07 09:10:24;;;;;;;2.23;0.60;;;7.60;99.90;;;;;;4887905;29;20245;-66
2022/04/07 09:12:52;;;;;;;2.23;0.57;;;7.60;99.90;;;;;;4890648;29;20732;-66
2022/04/07 09:15:22;;;;;;;0.80;0.47;;;7.60;99.90;;;;;;4888006;29;20333;-66
2022/04/07 09:17:53;;;;;;;0.67;0.50;;;7.60;99.90;;;;;;4890800;29;20245;-66
2022/04/07 09:20:22;;;;;;;1.03;0.40;;;7.60;99.90;;;;;;4889275;29;20261;-66
2022/04/07 09:22:57;;;;;;;1.43;0.50;;;7.60;99.90;;;;;;4890000;29;20242;-66
2022/04/07 09:25:26;;;;;;;1.03;0.50;;;7.60;99.90;;;;;;4894847;29;20661;-66
2022/04/07 09:27:57;;;;;;;1.37;0.50;;;7.50;99.90;;;;;;4895064;29;20236;-66
2022/04/07 09:30:26;;;;;;;0.77;0.63;;;7.50;99.90;;;;;;4890229;29;20233;-66
2022/04/07 09:32:55;;;;;;;2.60;0.60;;;7.50;99.90;;;;;;4886589;29;20233;-66
2022/04/07 09:35:24;;;;;;;0.67;0.50;;;7.50;99.90;;;;;;4895322;29;20241;-66
2022/04/07 09:37:52;;;;;;;2.07;0.70;;;7.40;99.90;;;;;;4894628;29;20237;-66
2022/04/07 09:40:21;;;;;;;1.87;0.70;;;7.30;99.90;;;;;;4903709;29;20263;-66
2022/04/07 09:42:58;;;;;;;1.87;1.40;;;7.40;99.90;;;;;;4896243;29;20237;-66
2022/04/07 09:45:26;;;;;;;2.30;1.00;;;7.30;99.90;;;;;;4896393;29;20251;-66
2022/04/07 09:47:56;;;;;;;1.77;0.70;;;7.20;99.90;;;;;;4896316;29;20705;-66
2022/04/07 09:50:29;;;;;;;0.93;0.60;;;7.20;99.90;;;;;;4895985;29;20241;-66
2022/04/07 09:52:58;;;;;;;1.07;0.60;;;7.20;99.90;;;;;;4896399;29;20241;-66
2022/04/07 09:55:30;;;;;;;2.10;0.70;;;7.20;99.90;;;;;;4896075;29;20243;-66
2022/04/07 09:57:59;;;;;;;1.43;0.60;;;7.10;99.90;;;;;;4895994;29;20240;-66
2022/04/07 10:00:28;;;;;;;1.30;0.70;;;7.10;99.90;;;;;;4891348;29;20320;-66
2022/04/07 10:02:58;;;;;;;1.27;0.70;;;7.00;99.90;;;;;;4894932;29;20229;-67
2022/04/07 10:05:27;;;;;;;1.30;0.83;;;7.00;99.90;;;;;;4896185;29;20624;-66
2022/04/07 10:07:57;;;;;;;1.93;0.73;;;7.00;99.90;;;;;;4890380;29;20329;-66
2022/04/07 10:10:26;;;;;;;1.43;1.00;;;6.90;99.90;;;;;;4886111;29;20244;-66
2022/04/07 10:12:56;;;;;;;2.03;1.00;;;6.90;99.90;;;;;;4893393;29;20237;-66
2022/04/07 10:15:25;;;;;;;1.17;0.70;;;6.90;99.90;;;;;;4895846;29;20241;-66
2022/04/07 10:17:54;;;;;;;2.40;0.77;;;6.90;99.90;;;;;;4894441;29;20241;-66
2022/04/07 10:20:33;;;;;;;1.87;0.60;;;6.80;99.90;;;;;;4895232;29;20273;-66
2022/04/07 10:23:10;;;;;;;2.97;0.87;;;6.70;99.90;;;;;;4895670;29;20275;-66
2022/04/07 10:25:48;;;;;;;1.77;0.80;;;6.70;99.90;;;;;;4895246;29;20335;-66
2022/04/07 10:28:17;;;;;;;1.73;0.60;;;6.70;99.90;;;;;;4892578;29;20324;-66
2022/04/07 10:30:49;;;;;;;1.30;0.80;;;6.70;99.90;;;;;;4902070;29;20245;-66
2022/04/07 10:33:33;;;;;;;2.90;0.93;;;6.70;99.90;;;;;;4893831;29;20233;-66
2022/04/07 10:36:10;;;;;;;1.43;0.73;;;6.60;99.90;;;;;;4893327;29;20248;-66
2022/04/07 10:38:40;;;;;;;3.77;0.70;;;6.60;99.90;;;;;;4887876;29;20271;-67
2022/04/07 10:41:09;;;;;;;2.23;0.80;;;6.60;99.90;;;;;;4895243;29;20241;-67
2022/04/07 10:43:40;;;;;;;1.80;0.83;;;6.60;99.90;;;;;;4895342;29;20485;-67
2022/04/07 10:46:16;;;;;;;1.00;0.60;;;6.60;99.90;;;;;;4895873;29;20671;-67
2022/04/07 10:48:46;;;;;;;1.67;0.70;;;6.60;99.90;;;;;;4895235;29;20260;-67
2022/04/07 10:51:16;;;;;;;2.30;0.90;;;6.60;99.90;;;;;;4895251;29;20324;-67
2022/04/07 10:54:02;;;;;;;4.87;0.70;;;6.70;99.90;;;;;;4895384;29;20712;-66
2022/04/07 10:56:34;;;;;;;1.90;0.80;;;6.80;99.90;;;;;;4895333;29;20248;-67
2022/04/07 10:59:20;;;;;;;2.43;0.60;;;7.20;99.90;;;;;;4895225;29;20594;-67
2022/04/07 11:01:59;;;;;;;1.87;0.93;;;7.60;99.90;;;;;;4901045;29;20327;-67
2022/04/07 11:05:08;;;;;;;1.60;0.80;;;8.20;99.90;;;;;;4896903;29;20299;-67
2022/04/07 11:07:39;;;;;;;1.90;1.10;;;8.70;99.90;;;;;;4892800;29;20248;-66
2022/04/07 11:10:11;;;;;;;1.83;1.03;;;8.80;99.90;;;;;;4894064;29;20331;-67
2022/04/07 11:12:46;;;;;;;1.70;0.93;;;9.10;99.90;;;;;;4887071;29;20265;-67
2022/04/07 11:15:19;;;;;;;2.80;1.20;;;9.50;99.90;;;;;;4886333;29;20645;-66
2022/04/07 11:17:53;;;;;;;3.40;1.30;;;9.50;99.90;;;;;;4888777;29;20705;-66
2022/04/07 11:20:22;;;;;;;2.00;1.10;;;9.70;99.90;;;;;;4908543;29;20320;-66
2022/04/07 11:22:56;;;;;;;2.33;1.37;;;9.90;99.90;;;;;;4895151;29;20593;-66
2022/04/07 11:25:26;;;;;;;2.60;1.47;;;10.30;99.90;;;;;;4895330;29;20324;-67
2022/04/07 11:28:11;;;;;;;1.63;1.23;;;9.80;99.90;;;;;;4894848;29;20605;-66
2022/04/07 11:30:44;;;;;;;3.07;1.43;;;9.50;99.90;;;;;;4887459;29;20649;-67
2022/04/07 11:33:30;;;;;;;2.00;1.30;;;9.30;99.90;;;;;;4897607;29;20233;-66
2022/04/07 11:36:37;;;;;;;3.03;1.40;;;9.20;99.90;;;;;;4890193;29;20296;-66
2022/04/07 11:39:12;;;;;;;3.03;1.30;;;9.50;99.90;;;;;;4890928;29;20244;-66
2022/04/07 11:41:43;;;;;;;2.60;2.23;;;9.70;99.90;;;;;;4889860;29;20328;-66
2022/04/07 11:44:13;;;;;;;2.10;1.30;;;9.90;99.90;;;;;;4899401;29;20298;-66
2022/04/07 11:46:41;;;;;;;3.20;1.60;;;10.20;99.90;;;;;;4905617;29;20297;-66
2022/04/07 11:49:11;;;;;;;3.10;1.40;;;10.10;99.90;;;;;;4901688;29;20268;-67
2022/04/07 11:51:41;;;;;;;3.27;1.37;;;10.00;99.90;;;;;;4898436;29;20237;-67
2022/04/07 11:54:10;;;;;;;2.63;1.50;;;10.10;99.90;;;;;;4898685;29;20302;-66
2022/04/07 11:56:40;;;;;;;2.53;1.70;;;10.30;99.90;;;;;;4899380;29;20633;-67
2022/04/07 11:59:10;;;;;;;1.60;1.40;;;10.60;99.90;;;;;;4898615;29;20264;-67
2022/04/07 12:01:40;;;;;;;3.20;1.70;;;10.60;99.90;;;;;;4898094;29;20233;-66
2022/04/07 12:04:10;;;;;;;2.20;1.40;;;10.70;99.90;;;;;;4898778;29;20736;-67
2022/04/07 12:06:45;;;;;;;3.27;1.30;;;10.70;99.90;;;;;;4897726;29;20612;-66
2022/04/07 12:09:16;;;;;;;2.37;1.40;;;10.60;99.90;;;;;;4898107;29;20328;-66
2022/04/07 12:11:45;;;;;;;2.87;1.30;;;10.70;99.90;;;;;;4891001;29;20265;-66
2022/04/07 12:14:15;;;;;;;3.37;1.50;;;10.90;99.90;;;;;;4898105;29;20269;-67
2022/04/07 12:16:46;;;;;;;4.33;1.63;;;11.10;99.90;;;;;;4891054;29;20294;-66
2022/04/07 12:19:17;;;;;;;3.17;1.70;;;11.20;99.90;;;;;;4886706;29;20233;-66
2022/04/07 12:21:55;;;;;;;3.43;1.33;;;11.30;99.90;;;;;;4886774;29;20325;-66
2022/04/07 12:24:27;;;;;;;4.87;1.67;;;11.10;99.90;;;;;;4898054;29;20248;-66
2022/04/07 12:26:58;;;;;;;2.73;1.27;;;10.90;99.90;;;;;;4897961;29;20242;-66
2022/04/07 12:29:30;;;;;;;4.80;1.30;;;10.90;99.90;;;;;;4897615;29;20241;-67
2022/04/07 12:32:00;;;;;;;3.57;1.50;;;11.00;99.90;;;;;;4896154;29;20265;-67
2022/04/07 12:34:29;;;;;;;2.43;1.50;;;11.30;99.90;;;;;;4897375;29;20321;-66
2022/04/07 12:36:58;;;;;;;4.50;1.13;;;11.20;99.90;;;;;;4897676;29;20253;-66
2022/04/07 12:39:34;;;;;;;3.33;1.67;;;10.90;99.90;;;;;;4897226;29;20746;-66
2022/04/07 12:42:08;;;;;;;5.77;1.70;;;10.80;99.90;;;;;;4893473;29;20581;-67
2022/04/07 12:44:39;;;;;;;4.90;1.50;;;10.60;99.90;;;;;;4895659;29;20328;-67
2022/04/07 12:47:14;;;;;;;3.43;1.47;;;10.20;99.90;;;;;;4895224;29;20718;-67
2022/04/07 12:49:55;;;;;;;2.77;1.70;;;10.00;99.90;;;;;;4891741;29;20244;-67
2022/04/07 12:52:35;;;;;;;3.20;1.73;;;9.90;99.90;;;;;;4889366;29;20237;-66
2022/04/07 12:55:06;;;;;;;2.40;1.40;;;9.70;99.90;;;;;;4889742;29;20304;-66
2022/04/07 12:57:38;;;;;;;4.70;1.80;;;9.50;99.90;;;;;;4890401;29;20629;-66
2022/04/07 13:00:26;;;;;;;4.23;1.33;;;9.40;99.90;;;;;;4890152;29;20238;-66
2022/04/07 13:02:55;;;;;;;4.97;1.60;;;9.30;99.90;;;;;;4888722;29;20313;-66
2022/04/07 13:05:25;;;;;;;2.77;1.37;;;9.20;99.90;;;;;;4890795;29;20241;-66
2022/04/07 13:07:53;;;;;;;3.20;1.57;;;9.20;99.90;;;;;;4888986;29;20818;-66
2022/04/07 13:10:23;;;;;;;2.97;1.13;;;9.30;99.90;;;;;;4890585;29;20241;-66